PWSweather.com
Personal Weather Stations
Station Observations
KCOGRAND2
Redlands, Southcamp Road & Dakota Circle, Grand Junction, CO 81507

Redlands, Southcamp Road & Dakota CircleGrand Junction, CO 81507

Lat: 39.055, Lon: -108.637

Elevation: 4870

Station Type: RadioShack WX200

High Low Average
Temperature 57.2°F14.0°C 34.7°F1.5°C 43.0°F6.1°C
Dew Point 36.7°F2.6°C 15.3°F-9.3°C 29.0°F-1.7°C
Winds 12.0 mph 19.3 kmh 1.0 mph 1.6 kmh 7.0 mph SW11.3 kmh SW
Wind Gusts 54.8 mph88.2 kmh 4.0 mph6.4 kmh 12.0 mph19.3 kmh
Humidity 94% 19% 63%
Pressure 25.04 in848.0 mb 24.77 in838.8 mb -
Precipitation 0.00 in0.0 mm - -
Hour Temp Dew Point Humidity Winds Wind Gusts Pressure Precip Precip Rate Daily Precip Total
12:00 AM 43.0°F6.1°C 16.5°F-8.6°C 34% 10.0 mph SW16.1 kmh SW 45.0 mph72.4 kmh 24.77 in838.8 mb 0.00 in0.0 mm 0.00 in/hr0.0 mm/hr 0.00 in0.0 mm
12:05 AM 43.2°F6.2°C 16.0°F-8.9°C 33% 9.0 mph SW14.5 kmh SW 29.5 mph47.5 kmh 24.77 in838.8 mb 0.00 in0.0 mm 0.00 in/hr0.0 mm/hr 0.00 in0.0 mm
12:10 AM 43.0°F6.1°C 15.8°F-9.0°C 33% 10.0 mph SW16.1 kmh SW 19.0 mph30.6 kmh 24.77 in838.8 mb 0.00 in0.0 mm 0.00 in/hr0.0 mm/hr 0.00 in0.0 mm
12:15 AM 43.2°F6.2°C 16.0°F-8.9°C 33% 9.0 mph WSW14.5 kmh WSW 13.0 mph20.9 kmh 24.77 in838.8 mb 0.00 in0.0 mm 0.00 in/hr0.0 mm/hr 0.00 in0.0 mm
12:20 AM 43.0°F6.1°C 15.8°F-9.0°C 33% 9.0 mph WSW14.5 kmh WSW 14.8 mph23.8 kmh 24.77 in838.8 mb 0.00 in0.0 mm 0.00 in/hr0.0 mm/hr 0.00 in0.0 mm
12:25 AM 43.0°F6.1°C 16.5°F-8.6°C 34% 9.0 mph WSW14.5 kmh WSW 42.7 mph68.7 kmh 24.80 in839.8 mb 0.00 in0.0 mm 0.00 in/hr0.0 mm/hr 0.00 in0.0 mm
12:30 AM 42.8°F6.0°C 16.3°F-8.7°C 34% 8.0 mph WSW12.9 kmh WSW 15.4 mph24.8 kmh 24.80 in839.8 mb 0.00 in0.0 mm 0.00 in/hr0.0 mm/hr 0.00 in0.0 mm
12:35 AM 42.6°F5.9°C 16.9°F-8.4°C 35% 8.0 mph WSW12.9 kmh WSW 54.8 mph88.2 kmh 24.80 in839.8 mb 0.00 in0.0 mm 0.00 in/hr0.0 mm/hr 0.00 in0.0 mm
12:40 AM 42.4°F5.8°C 17.4°F-8.1°C 36% 9.0 mph WSW14.5 kmh WSW 19.0 mph30.6 kmh 24.80 in839.8 mb 0.00 in0.0 mm 0.00 in/hr0.0 mm/hr 0.00 in0.0 mm
12:45 AM 42.1°F5.6°C 18.3°F-7.6°C 38% 11.0 mph WSW17.7 kmh WSW 20.1 mph32.3 kmh 24.80 in839.8 mb 0.00 in0.0 mm 0.00 in/hr0.0 mm/hr 0.00 in0.0 mm
12:51 AM 40.3°F4.6°C 20.1°F-6.6°C 44% 8.0 mph SW12.9 kmh SW 13.4 mph21.6 kmh 24.80 in839.8 mb 0.00 in0.0 mm 0.00 in/hr0.0 mm/hr 0.00 in0.0 mm
12:56 AM 39.9°F4.4°C 22.8°F-5.1°C 50% 6.0 mph SW9.7 kmh SW 15.2 mph24.5 kmh 24.80 in839.8 mb 0.00 in0.0 mm 0.00 in/hr0.0 mm/hr 0.00 in0.0 mm
01:01 AM 38.8°F3.8°C 24.1°F-4.4°C 55% 7.0 mph SW11.3 kmh SW 15.4 mph24.8 kmh 24.80 in839.8 mb 0.00 in0.0 mm 0.00 in/hr0.0 mm/hr 0.00 in0.0 mm
01:06 AM 38.7°F3.7°C 24.3°F-4.3°C 56% 6.0 mph SSW9.7 kmh SSW 11.0 mph17.7 kmh 24.80 in839.8 mb 0.00 in0.0 mm 0.00 in/hr0.0 mm/hr 0.00 in0.0 mm
01:11 AM 38.7°F3.7°C 25.2°F-3.8°C 58% 5.0 mph S8.0 kmh S 10.5 mph16.9 kmh 24.80 in839.8 mb 0.00 in0.0 mm 0.00 in/hr0.0 mm/hr 0.00 in0.0 mm
01:16 AM 38.8°F3.8°C 25.3°F-3.7°C 58% 6.0 mph SE9.7 kmh SE 10.1 mph16.3 kmh 24.80 in839.8 mb 0.00 in0.0 mm 0.00 in/hr0.0 mm/hr 0.00 in0.0 mm
01:21 AM 38.1°F3.4°C 26.2°F-3.2°C 62% 6.0 mph ESE9.7 kmh ESE 10.1 mph16.3 kmh 24.80 in839.8 mb 0.00 in0.0 mm 0.00 in/hr0.0 mm/hr 0.00 in0.0 mm
01:26 AM 38.1°F3.4°C 27.0°F-2.8°C 64% 6.0 mph E9.7 kmh E 8.3 mph13.4 kmh 24.80 in839.8 mb 0.00 in0.0 mm 0.00 in/hr0.0 mm/hr 0.00 in0.0 mm
01:31 AM 37.9°F3.3°C 27.7°F-2.4°C 66% 5.0 mph NE8.0 kmh NE 27.5 mph44.3 kmh 24.80 in839.8 mb 0.00 in0.0 mm 0.00 in/hr0.0 mm/hr 0.00 in0.0 mm
01:36 AM 37.9°F3.3°C 27.7°F-2.4°C 66% 4.0 mph NE6.4 kmh NE 6.3 mph10.1 kmh 24.80 in839.8 mb 0.00 in0.0 mm 0.00 in/hr0.0 mm/hr 0.00 in0.0 mm
01:41 AM 37.9°F3.3°C 28.0°F-2.2°C 67% 4.0 mph ENE6.4 kmh ENE 6.7 mph10.8 kmh 24.80 in839.8 mb 0.00 in0.0 mm 0.00 in/hr0.0 mm/hr 0.00 in0.0 mm
01:46 AM 37.8°F3.2°C 29.3°F-1.5°C 71% 5.0 mph E8.0 kmh E 6.9 mph11.1 kmh 24.80 in839.8 mb 0.00 in0.0 mm 0.00 in/hr0.0 mm/hr 0.00 in0.0 mm
01:51 AM 37.6°F3.1°C 30.0°F-1.1°C 74% 5.0 mph E8.0 kmh E 7.4 mph11.9 kmh 24.80 in839.8 mb 0.00 in0.0 mm 0.00 in/hr0.0 mm/hr 0.00 in0.0 mm
01:56 AM 37.0°F2.8°C 30.6°F-0.8°C 77% 6.0 mph E9.7 kmh E 10.5 mph16.9 kmh 24.83 in840.8 mb 0.00 in0.0 mm 0.00 in/hr0.0 mm/hr 0.00 in0.0 mm
02:01 AM 36.9°F2.7°C 30.9°F-0.6°C 79% 7.0 mph E11.3 kmh E 22.4 mph36.0 kmh 24.83 in840.8 mb 0.00 in0.0 mm 0.00 in/hr0.0 mm/hr 0.00 in0.0 mm
02:06 AM 36.5°F2.5°C 31.3°F-0.4°C 81% 7.0 mph ESE11.3 kmh ESE 19.0 mph30.6 kmh 24.83 in840.8 mb 0.00 in0.0 mm 0.00 in/hr0.0 mm/hr 0.00 in0.0 mm
02:11 AM 36.5°F2.5°C 31.5°F-0.3°C 82% 8.0 mph ESE12.9 kmh ESE 36.5 mph58.7 kmh 24.83 in840.8 mb 0.00 in0.0 mm 0.00 in/hr0.0 mm/hr 0.00 in0.0 mm
02:16 AM 36.5°F2.5°C 31.8°F-0.1°C 83% 7.0 mph ESE11.3 kmh ESE 10.1 mph16.3 kmh 24.83 in840.8 mb 0.00 in0.0 mm 0.00 in/hr0.0 mm/hr 0.00 in0.0 mm
02:21 AM 36.3°F2.4°C 32.0°F0.0°C 84% 7.0 mph ESE11.3 kmh ESE 10.1 mph16.3 kmh 24.83 in840.8 mb 0.00 in0.0 mm 0.00 in/hr0.0 mm/hr 0.00 in0.0 mm
02:26 AM 36.3°F2.4°C 32.0°F0.0°C 84% 7.0 mph E11.3 kmh E 9.6 mph15.4 kmh 24.83 in840.8 mb 0.00 in0.0 mm 0.00 in/hr0.0 mm/hr 0.00 in0.0 mm
02:31 AM 36.3°F2.4°C 32.2°F0.1°C 85% 6.0 mph E9.7 kmh E 10.1 mph16.3 kmh 24.83 in840.8 mb 0.00 in0.0 mm 0.00 in/hr0.0 mm/hr 0.00 in0.0 mm
02:36 AM 36.3°F2.4°C 32.2°F0.1°C 85% 6.0 mph ESE9.7 kmh ESE 10.5 mph16.9 kmh 24.83 in840.8 mb 0.00 in0.0 mm 0.00 in/hr0.0 mm/hr 0.00 in0.0 mm
02:42 AM 36.3°F2.4°C 32.5°F0.3°C 86% 5.0 mph ESE8.0 kmh ESE 7.8 mph12.6 kmh 24.83 in840.8 mb 0.00 in0.0 mm 0.00 in/hr0.0 mm/hr 0.00 in0.0 mm
02:47 AM 36.1°F2.3°C 32.4°F0.2°C 86% 4.0 mph ESE6.4 kmh ESE 7.4 mph11.9 kmh 24.83 in840.8 mb 0.00 in0.0 mm 0.00 in/hr0.0 mm/hr 0.00 in0.0 mm
02:52 AM 36.1°F2.3°C 32.4°F0.2°C 86% 4.0 mph E6.4 kmh E 6.7 mph10.8 kmh 24.83 in840.8 mb 0.00 in0.0 mm 0.00 in/hr0.0 mm/hr 0.00 in0.0 mm
02:57 AM 36.1°F2.3°C 32.4°F0.2°C 86% 4.0 mph E6.4 kmh E 7.8 mph12.6 kmh 24.83 in840.8 mb 0.00 in0.0 mm 0.00 in/hr0.0 mm/hr 0.00 in0.0 mm
03:02 AM 36.0°F2.2°C 32.5°F0.3°C 87% 4.0 mph E6.4 kmh E 6.9 mph11.1 kmh 24.83 in840.8 mb 0.00 in0.0 mm 0.00 in/hr0.0 mm/hr 0.00 in0.0 mm
03:07 AM 36.0°F2.2°C 32.5°F0.3°C 87% 5.0 mph ESE8.0 kmh ESE 7.8 mph12.6 kmh 24.83 in840.8 mb 0.00 in0.0 mm 0.00 in/hr0.0 mm/hr 0.00 in0.0 mm
03:12 AM 35.8°F2.1°C 32.4°F0.2°C 87% 5.0 mph ESE8.0 kmh ESE 9.2 mph14.8 kmh 24.83 in840.8 mb 0.00 in0.0 mm 0.00 in/hr0.0 mm/hr 0.00 in0.0 mm
03:17 AM 35.8°F2.1°C 32.5°F0.3°C 88% 4.0 mph E6.4 kmh E 5.8 mph9.3 kmh 24.83 in840.8 mb 0.00 in0.0 mm 0.00 in/hr0.0 mm/hr 0.00 in0.0 mm
03:22 AM 35.6°F2.0°C 32.4°F0.2°C 88% 3.0 mph E4.8 kmh E 7.4 mph11.9 kmh 24.83 in840.8 mb 0.00 in0.0 mm 0.00 in/hr0.0 mm/hr 0.00 in0.0 mm
03:27 AM 35.6°F2.0°C 32.4°F0.2°C 88% 3.0 mph E4.8 kmh E 5.8 mph9.3 kmh 24.86 in841.9 mb 0.00 in0.0 mm 0.00 in/hr0.0 mm/hr 0.00 in0.0 mm
03:32 AM 35.6°F2.0°C 32.4°F0.2°C 88% 2.0 mph E3.2 kmh E 4.9 mph7.9 kmh 24.86 in841.9 mb 0.00 in0.0 mm 0.00 in/hr0.0 mm/hr 0.00 in0.0 mm
03:37 AM 35.6°F2.0°C 32.7°F0.4°C 89% 2.0 mph E3.2 kmh E 4.5 mph7.2 kmh 24.86 in841.9 mb 0.00 in0.0 mm 0.00 in/hr0.0 mm/hr 0.00 in0.0 mm
03:42 AM 35.8°F2.1°C 32.9°F0.5°C 89% 1.0 mph ENE1.6 kmh ENE 4.0 mph6.4 kmh 24.86 in841.9 mb 0.00 in0.0 mm 0.00 in/hr0.0 mm/hr 0.00 in0.0 mm
03:47 AM 35.6°F2.0°C 32.9°F0.5°C 90% 2.0 mph ENE3.2 kmh ENE 6.7 mph10.8 kmh 24.86 in841.9 mb 0.00 in0.0 mm 0.00 in/hr0.0 mm/hr 0.00 in0.0 mm
03:52 AM 35.6°F2.0°C 33.3°F0.7°C 91% 3.0 mph NE4.8 kmh NE 5.8 mph9.3 kmh 24.86 in841.9 mb 0.00 in0.0 mm 0.00 in/hr0.0 mm/hr 0.00 in0.0 mm
03:57 AM 35.4°F1.9°C 33.1°F0.6°C 91% 4.0 mph NE6.4 kmh NE 5.4 mph8.7 kmh 24.86 in841.9 mb 0.00 in0.0 mm 0.00 in/hr0.0 mm/hr 0.00 in0.0 mm
04:02 AM 35.6°F2.0°C 33.4°F0.8°C 92% 4.0 mph NE6.4 kmh NE 5.4 mph8.7 kmh 24.86 in841.9 mb 0.00 in0.0 mm 0.00 in/hr0.0 mm/hr 0.00 in0.0 mm
04:07 AM 35.6°F2.0°C 33.8°F1.0°C 93% 4.0 mph NNE6.4 kmh NNE 4.9 mph7.9 kmh 24.86 in841.9 mb 0.00 in0.0 mm 0.00 in/hr0.0 mm/hr 0.00 in0.0 mm
04:12 AM 35.4°F1.9°C 33.6°F0.9°C 93% 4.0 mph N6.4 kmh N 6.9 mph11.1 kmh 24.86 in841.9 mb 0.00 in0.0 mm 0.00 in/hr0.0 mm/hr 0.00 in0.0 mm
04:17 AM 35.4°F1.9°C 33.6°F0.9°C 93% 5.0 mph N8.0 kmh N 9.6 mph15.4 kmh 24.86 in841.9 mb 0.00 in0.0 mm 0.00 in/hr0.0 mm/hr 0.00 in0.0 mm
04:22 AM 35.2°F1.8°C 33.4°F0.8°C 93% 5.0 mph N8.0 kmh N 6.9 mph11.1 kmh 24.86 in841.9 mb 0.00 in0.0 mm 0.00 in/hr0.0 mm/hr 0.00 in0.0 mm
04:27 AM 35.2°F1.8°C 33.4°F0.8°C 93% 5.0 mph NNW8.0 kmh NNW 7.8 mph12.6 kmh 24.86 in841.9 mb 0.00 in0.0 mm 0.00 in/hr0.0 mm/hr 0.00 in0.0 mm
04:32 AM 35.1°F1.7°C 33.3°F0.7°C 93% 4.0 mph NNW6.4 kmh NNW 6.3 mph10.1 kmh 24.86 in841.9 mb 0.00 in0.0 mm 0.00 in/hr0.0 mm/hr 0.00 in0.0 mm
04:37 AM 35.1°F1.7°C 33.3°F0.7°C 93% 4.0 mph NNW6.4 kmh NNW 6.7 mph10.8 kmh 24.86 in841.9 mb 0.00 in0.0 mm 0.00 in/hr0.0 mm/hr 0.00 in0.0 mm
04:47 AM 35.1°F1.7°C 33.4°F0.8°C 94% 4.0 mph NW6.4 kmh NW 5.8 mph9.3 kmh 24.86 in841.9 mb 0.00 in0.0 mm 0.00 in/hr0.0 mm/hr 0.00 in0.0 mm
04:52 AM 34.9°F1.6°C 33.3°F0.7°C 94% 4.0 mph NW6.4 kmh NW 6.9 mph11.1 kmh 24.86 in841.9 mb 0.00 in0.0 mm 0.00 in/hr0.0 mm/hr 0.00 in0.0 mm
04:57 AM 34.7°F1.5°C 33.1°F0.6°C 94% 5.0 mph NW8.0 kmh NW 7.4 mph11.9 kmh 24.86 in841.9 mb 0.00 in0.0 mm 0.00 in/hr0.0 mm/hr 0.00 in0.0 mm
05:02 AM 34.7°F1.5°C 32.9°F0.5°C 93% 5.0 mph NW8.0 kmh NW 6.7 mph10.8 kmh 24.86 in841.9 mb 0.00 in0.0 mm 0.00 in/hr0.0 mm/hr 0.00 in0.0 mm
05:07 AM 34.7°F1.5°C 33.1°F0.6°C 94% 5.0 mph NW8.0 kmh NW 8.3 mph13.4 kmh 24.86 in841.9 mb 0.00 in0.0 mm 0.00 in/hr0.0 mm/hr 0.00 in0.0 mm
05:12 AM 34.7°F1.5°C 32.9°F0.5°C 93% 6.0 mph NNW9.7 kmh NNW 8.7 mph14.0 kmh 24.89 in842.9 mb 0.00 in0.0 mm 0.00 in/hr0.0 mm/hr 0.00 in0.0 mm
05:17 AM 34.7°F1.5°C 32.9°F0.5°C 93% 6.0 mph NNW9.7 kmh NNW 9.2 mph14.8 kmh 24.89 in842.9 mb 0.00 in0.0 mm 0.00 in/hr0.0 mm/hr 0.00 in0.0 mm
05:22 AM 34.9°F1.6°C 33.1°F0.6°C 93% 6.0 mph NW9.7 kmh NW 8.7 mph14.0 kmh 24.89 in842.9 mb 0.00 in0.0 mm 0.00 in/hr0.0 mm/hr 0.00 in0.0 mm
05:27 AM 34.7°F1.5°C 32.9°F0.5°C 93% 6.0 mph NW9.7 kmh NW 10.5 mph16.9 kmh 24.89 in842.9 mb 0.00 in0.0 mm 0.00 in/hr0.0 mm/hr 0.00 in0.0 mm
05:32 AM 34.9°F1.6°C 33.1°F0.6°C 93% 7.0 mph NW11.3 kmh NW 8.3 mph13.4 kmh 24.89 in842.9 mb 0.00 in0.0 mm 0.00 in/hr0.0 mm/hr 0.00 in0.0 mm
05:37 AM 34.9°F1.6°C 33.1°F0.6°C 93% 6.0 mph NW9.7 kmh NW 7.8 mph12.6 kmh 24.89 in842.9 mb 0.00 in0.0 mm 0.00 in/hr0.0 mm/hr 0.00 in0.0 mm
05:42 AM 34.9°F1.6°C 33.1°F0.6°C 93% 6.0 mph NW9.7 kmh NW 8.3 mph13.4 kmh 24.89 in842.9 mb 0.00 in0.0 mm 0.00 in/hr0.0 mm/hr 0.00 in0.0 mm
05:47 AM 34.9°F1.6°C 32.7°F0.4°C 92% 5.0 mph NW8.0 kmh NW 6.7 mph10.8 kmh 24.89 in842.9 mb 0.00 in0.0 mm 0.00 in/hr0.0 mm/hr 0.00 in0.0 mm
05:52 AM 35.1°F1.7°C 32.9°F0.5°C 92% 5.0 mph WNW8.0 kmh WNW 6.7 mph10.8 kmh 24.89 in842.9 mb 0.00 in0.0 mm 0.00 in/hr0.0 mm/hr 0.00 in0.0 mm
05:57 AM 35.1°F1.7°C 32.9°F0.5°C 92% 5.0 mph WNW8.0 kmh WNW 6.9 mph11.1 kmh 24.89 in842.9 mb 0.00 in0.0 mm 0.00 in/hr0.0 mm/hr 0.00 in0.0 mm
06:02 AM 35.1°F1.7°C 32.9°F0.5°C 92% 5.0 mph WNW8.0 kmh WNW 6.9 mph11.1 kmh 24.89 in842.9 mb 0.00 in0.0 mm 0.00 in/hr0.0 mm/hr 0.00 in0.0 mm
06:07 AM 35.1°F1.7°C 33.3°F0.7°C 93% 5.0 mph NW8.0 kmh NW 6.3 mph10.1 kmh 24.89 in842.9 mb 0.00 in0.0 mm 0.00 in/hr0.0 mm/hr 0.00 in0.0 mm
06:12 AM 35.1°F1.7°C 33.3°F0.7°C 93% 5.0 mph NW8.0 kmh NW 7.4 mph11.9 kmh 24.92 in843.9 mb 0.00 in0.0 mm 0.00 in/hr0.0 mm/hr 0.00 in0.0 mm
06:17 AM 34.9°F1.6°C 33.1°F0.6°C 93% 5.0 mph NW8.0 kmh NW 6.7 mph10.8 kmh 24.92 in843.9 mb 0.00 in0.0 mm 0.00 in/hr0.0 mm/hr 0.00 in0.0 mm
06:22 AM 35.1°F1.7°C 33.3°F0.7°C 93% 5.0 mph NW8.0 kmh NW 7.4 mph11.9 kmh 24.92 in843.9 mb 0.00 in0.0 mm 0.00 in/hr0.0 mm/hr 0.00 in0.0 mm
06:27 AM 35.1°F1.7°C 33.3°F0.7°C 93% 5.0 mph NW8.0 kmh NW 7.8 mph12.6 kmh 24.92 in843.9 mb 0.00 in0.0 mm 0.00 in/hr0.0 mm/hr 0.00 in0.0 mm
06:32 AM 35.1°F1.7°C 33.3°F0.7°C 93% 5.0 mph NW8.0 kmh NW 8.3 mph13.4 kmh 24.92 in843.9 mb 0.00 in0.0 mm 0.00 in/hr0.0 mm/hr 0.00 in0.0 mm
06:37 AM 35.4°F1.9°C 33.6°F0.9°C 93% 5.0 mph NW8.0 kmh NW 8.3 mph13.4 kmh 24.92 in843.9 mb 0.00 in0.0 mm 0.00 in/hr0.0 mm/hr 0.00 in0.0 mm
06:42 AM 35.4°F1.9°C 33.6°F0.9°C 93% 5.0 mph NW8.0 kmh NW 7.8 mph12.6 kmh 24.92 in843.9 mb 0.00 in0.0 mm 0.00 in/hr0.0 mm/hr 0.00 in0.0 mm
06:48 AM 35.6°F2.0°C 33.8°F1.0°C 93% 6.0 mph NW9.7 kmh NW 8.7 mph14.0 kmh 24.92 in843.9 mb 0.00 in0.0 mm 0.00 in/hr0.0 mm/hr 0.00 in0.0 mm
06:53 AM 35.6°F2.0°C 33.8°F1.0°C 93% 7.0 mph NW11.3 kmh NW 9.2 mph14.8 kmh 24.92 in843.9 mb 0.00 in0.0 mm 0.00 in/hr0.0 mm/hr 0.00 in0.0 mm
07:03 AM 36.3°F2.4°C 34.5°F1.4°C 93% 6.0 mph NNW9.7 kmh NNW 8.7 mph14.0 kmh 24.92 in843.9 mb 0.00 in0.0 mm 0.00 in/hr0.0 mm/hr 0.00 in0.0 mm
07:08 AM 36.3°F2.4°C 34.5°F1.4°C 93% 6.0 mph NW9.7 kmh NW 8.7 mph14.0 kmh 24.92 in843.9 mb 0.00 in0.0 mm 0.00 in/hr0.0 mm/hr 0.00 in0.0 mm
07:13 AM 36.7°F2.6°C 34.5°F1.4°C 92% 6.0 mph NW9.7 kmh NW 9.6 mph15.4 kmh 24.95 in844.9 mb 0.00 in0.0 mm 0.00 in/hr0.0 mm/hr 0.00 in0.0 mm
07:18 AM 36.9°F2.7°C 34.5°F1.4°C 91% 6.0 mph NW9.7 kmh NW 10.5 mph16.9 kmh 24.95 in844.9 mb 0.00 in0.0 mm 0.00 in/hr0.0 mm/hr 0.00 in0.0 mm
07:23 AM 37.2°F2.9°C 34.9°F1.6°C 91% 6.0 mph NW9.7 kmh NW 7.4 mph11.9 kmh 24.95 in844.9 mb 0.00 in0.0 mm 0.00 in/hr0.0 mm/hr 0.00 in0.0 mm
07:28 AM 37.0°F2.8°C 34.3°F1.3°C 90% 5.0 mph NW8.0 kmh NW 8.7 mph14.0 kmh 24.92 in843.9 mb 0.00 in0.0 mm 0.00 in/hr0.0 mm/hr 0.00 in0.0 mm
07:33 AM 37.4°F3.0°C 34.5°F1.4°C 89% 6.0 mph NW9.7 kmh NW 10.5 mph16.9 kmh 24.92 in843.9 mb 0.00 in0.0 mm 0.00 in/hr0.0 mm/hr 0.00 in0.0 mm
07:39 AM 37.4°F3.0°C 34.2°F1.2°C 88% 8.0 mph NW12.9 kmh NW 10.1 mph16.3 kmh 24.92 in843.9 mb 0.00 in0.0 mm 0.00 in/hr0.0 mm/hr 0.00 in0.0 mm
07:44 AM 37.6°F3.1°C 34.3°F1.3°C 88% 7.0 mph NW11.3 kmh NW 9.6 mph15.4 kmh 24.95 in844.9 mb 0.00 in0.0 mm 0.00 in/hr0.0 mm/hr 0.00 in0.0 mm
07:49 AM 37.4°F3.0°C 34.2°F1.2°C 88% 7.0 mph NW11.3 kmh NW 9.6 mph15.4 kmh 24.95 in844.9 mb 0.00 in0.0 mm 0.00 in/hr0.0 mm/hr 0.00 in0.0 mm
07:54 AM 37.6°F3.1°C 34.0°F1.1°C 87% 7.0 mph NW11.3 kmh NW 9.6 mph15.4 kmh 24.95 in844.9 mb 0.00 in0.0 mm 0.00 in/hr0.0 mm/hr 0.00 in0.0 mm
07:59 AM 37.8°F3.2°C 34.2°F1.2°C 87% 7.0 mph NW11.3 kmh NW 8.7 mph14.0 kmh 24.95 in844.9 mb 0.00 in0.0 mm 0.00 in/hr0.0 mm/hr 0.00 in0.0 mm
08:04 AM 37.9°F3.3°C 34.3°F1.3°C 87% 7.0 mph NW11.3 kmh NW 10.1 mph16.3 kmh 24.95 in844.9 mb 0.00 in0.0 mm 0.00 in/hr0.0 mm/hr 0.00 in0.0 mm
08:09 AM 38.1°F3.4°C 34.5°F1.4°C 87% 7.0 mph NW11.3 kmh NW 11.6 mph18.7 kmh 24.95 in844.9 mb 0.00 in0.0 mm 0.00 in/hr0.0 mm/hr 0.00 in0.0 mm
08:14 AM 38.7°F3.7°C 35.1°F1.7°C 87% 6.0 mph NW9.7 kmh NW 7.8 mph12.6 kmh 24.95 in844.9 mb 0.00 in0.0 mm 0.00 in/hr0.0 mm/hr 0.00 in0.0 mm
08:19 AM 39.2°F4.0°C 35.4°F1.9°C 86% 5.0 mph NW8.0 kmh NW 7.4 mph11.9 kmh 24.95 in844.9 mb 0.00 in0.0 mm 0.00 in/hr0.0 mm/hr 0.00 in0.0 mm
08:24 AM 39.0°F3.9°C 34.5°F1.4°C 84% 5.0 mph NW8.0 kmh NW 11.0 mph17.7 kmh 24.95 in844.9 mb 0.00 in0.0 mm 0.00 in/hr0.0 mm/hr 0.00 in0.0 mm
08:29 AM 39.0°F3.9°C 34.5°F1.4°C 84% 7.0 mph NW11.3 kmh NW 11.6 mph18.7 kmh 24.95 in844.9 mb 0.00 in0.0 mm 0.00 in/hr0.0 mm/hr 0.00 in0.0 mm
08:34 AM 38.8°F3.8°C 34.2°F1.2°C 83% 7.0 mph NW11.3 kmh NW 11.0 mph17.7 kmh 24.95 in844.9 mb 0.00 in0.0 mm 0.00 in/hr0.0 mm/hr 0.00 in0.0 mm
08:39 AM 39.9°F4.4°C 35.4°F1.9°C 84% 6.0 mph NW9.7 kmh NW 7.8 mph12.6 kmh 24.95 in844.9 mb 0.00 in0.0 mm 0.00 in/hr0.0 mm/hr 0.00 in0.0 mm
08:44 AM 40.8°F4.9°C 34.9°F1.6°C 79% 6.0 mph NNW9.7 kmh NNW 9.6 mph15.4 kmh 24.95 in844.9 mb 0.00 in0.0 mm 0.00 in/hr0.0 mm/hr 0.00 in0.0 mm
08:49 AM 41.0°F5.0°C 34.7°F1.5°C 78% 6.0 mph NW9.7 kmh NW 8.7 mph14.0 kmh 24.95 in844.9 mb 0.00 in0.0 mm 0.00 in/hr0.0 mm/hr 0.00 in0.0 mm
08:54 AM 41.5°F5.3°C 34.9°F1.6°C 77% 5.0 mph NW8.0 kmh NW 8.7 mph14.0 kmh 24.95 in844.9 mb 0.00 in0.0 mm 0.00 in/hr0.0 mm/hr 0.00 in0.0 mm
08:59 AM 43.2°F6.2°C 35.8°F2.1°C 75% 5.0 mph NW8.0 kmh NW 11.0 mph17.7 kmh 24.95 in844.9 mb 0.00 in0.0 mm 0.00 in/hr0.0 mm/hr 0.00 in0.0 mm
09:04 AM 43.0°F6.1°C 34.9°F1.6°C 73% 6.0 mph NNW9.7 kmh NNW 11.2 mph18.0 kmh 24.95 in844.9 mb 0.00 in0.0 mm 0.00 in/hr0.0 mm/hr 0.00 in0.0 mm
09:09 AM 44.1°F6.7°C 36.0°F2.2°C 73% 6.0 mph NNW9.7 kmh NNW 10.1 mph16.3 kmh 24.95 in844.9 mb 0.00 in0.0 mm 0.00 in/hr0.0 mm/hr 0.00 in0.0 mm
09:14 AM 44.4°F6.9°C 35.2°F1.8°C 70% 6.0 mph NW9.7 kmh NW 11.0 mph17.7 kmh 24.95 in844.9 mb 0.00 in0.0 mm 0.00 in/hr0.0 mm/hr 0.00 in0.0 mm
09:19 AM 45.1°F7.3°C 35.2°F1.8°C 68% 7.0 mph NNW11.3 kmh NNW 12.5 mph20.1 kmh 24.95 in844.9 mb 0.00 in0.0 mm 0.00 in/hr0.0 mm/hr 0.00 in0.0 mm
09:24 AM 45.7°F7.6°C 35.1°F1.7°C 66% 8.0 mph NNW12.9 kmh NNW 11.0 mph17.7 kmh 24.95 in844.9 mb 0.00 in0.0 mm 0.00 in/hr0.0 mm/hr 0.00 in0.0 mm
09:29 AM 45.0°F7.2°C 34.0°F1.1°C 65% 8.0 mph N12.9 kmh N 12.1 mph19.5 kmh 24.98 in845.9 mb 0.00 in0.0 mm 0.00 in/hr0.0 mm/hr 0.00 in0.0 mm
09:34 AM 45.1°F7.3°C 33.3°F0.7°C 63% 9.0 mph NNW14.5 kmh NNW 13.9 mph22.4 kmh 24.98 in845.9 mb 0.00 in0.0 mm 0.00 in/hr0.0 mm/hr 0.00 in0.0 mm
09:39 AM 45.1°F7.3°C 33.3°F0.7°C 63% 9.0 mph NNW14.5 kmh NNW 12.5 mph20.1 kmh 24.98 in845.9 mb 0.00 in0.0 mm 0.00 in/hr0.0 mm/hr 0.00 in0.0 mm
09:44 AM 45.3°F7.4°C 33.4°F0.8°C 63% 9.0 mph NNW14.5 kmh NNW 15.2 mph24.5 kmh 24.98 in845.9 mb 0.00 in0.0 mm 0.00 in/hr0.0 mm/hr 0.00 in0.0 mm
09:49 AM 46.8°F8.2°C 33.6°F0.9°C 60% 9.0 mph NNW14.5 kmh NNW 13.9 mph22.4 kmh 24.98 in845.9 mb 0.00 in0.0 mm 0.00 in/hr0.0 mm/hr 0.00 in0.0 mm
09:54 AM 47.7°F8.7°C 34.0°F1.1°C 59% 8.0 mph NNW12.9 kmh NNW 12.1 mph19.5 kmh 24.98 in845.9 mb 0.00 in0.0 mm 0.00 in/hr0.0 mm/hr 0.00 in0.0 mm
09:59 AM 47.8°F8.8°C 32.9°F0.5°C 56% 8.0 mph NW12.9 kmh NW 12.1 mph19.5 kmh 24.98 in845.9 mb 0.00 in0.0 mm 0.00 in/hr0.0 mm/hr 0.00 in0.0 mm
10:05 AM 47.8°F8.8°C 32.5°F0.3°C 55% 8.0 mph NW12.9 kmh NW 13.0 mph20.9 kmh 24.98 in845.9 mb 0.00 in0.0 mm 0.00 in/hr0.0 mm/hr 0.00 in0.0 mm
10:10 AM 47.3°F8.5°C 31.5°F-0.3°C 54% 9.0 mph N14.5 kmh N 13.0 mph20.9 kmh 24.98 in845.9 mb 0.00 in0.0 mm 0.00 in/hr0.0 mm/hr 0.00 in0.0 mm
10:15 AM 48.2°F9.0°C 30.9°F-0.6°C 51% 9.0 mph N14.5 kmh N 12.5 mph20.1 kmh 24.98 in845.9 mb 0.00 in0.0 mm 0.00 in/hr0.0 mm/hr 0.00 in0.0 mm
10:20 AM 48.7°F9.3°C 29.5°F-1.4°C 47% 9.0 mph NNW14.5 kmh NNW 14.3 mph23.0 kmh 24.98 in845.9 mb 0.00 in0.0 mm 0.00 in/hr0.0 mm/hr 0.00 in0.0 mm
10:25 AM 48.7°F9.3°C 30.4°F-0.9°C 49% 8.0 mph N12.9 kmh N 13.0 mph20.9 kmh 24.98 in845.9 mb 0.00 in0.0 mm 0.00 in/hr0.0 mm/hr 0.00 in0.0 mm
10:30 AM 50.0°F10.0°C 28.9°F-1.7°C 44% 9.0 mph N14.5 kmh N 13.4 mph21.6 kmh 24.98 in845.9 mb 0.00 in0.0 mm 0.00 in/hr0.0 mm/hr 0.00 in0.0 mm
10:35 AM 51.1°F10.6°C 30.0°F-1.1°C 44% 9.0 mph NNW14.5 kmh NNW 15.4 mph24.8 kmh 24.98 in845.9 mb 0.00 in0.0 mm 0.00 in/hr0.0 mm/hr 0.00 in0.0 mm
10:40 AM 51.4°F10.8°C 27.3°F-2.6°C 39% 9.0 mph NNW14.5 kmh NNW 17.2 mph27.7 kmh 24.98 in845.9 mb 0.00 in0.0 mm 0.00 in/hr0.0 mm/hr 0.00 in0.0 mm
10:45 AM 50.5°F10.3°C 28.2°F-2.1°C 42% 10.0 mph N16.1 kmh N 18.1 mph29.1 kmh 24.98 in845.9 mb 0.00 in0.0 mm 0.00 in/hr0.0 mm/hr 0.00 in0.0 mm
10:50 AM 50.2°F10.1°C 28.6°F-1.9°C 43% 11.0 mph N17.7 kmh N 16.8 mph27.0 kmh 24.98 in845.9 mb 0.00 in0.0 mm 0.00 in/hr0.0 mm/hr 0.00 in0.0 mm
10:55 AM 51.1°F10.6°C 27.7°F-2.4°C 40% 10.0 mph N16.1 kmh N 13.0 mph20.9 kmh 24.95 in844.9 mb 0.00 in0.0 mm 0.00 in/hr0.0 mm/hr 0.00 in0.0 mm
11:00 AM 52.2°F11.2°C 28.0°F-2.2°C 39% 9.0 mph N14.5 kmh N 15.4 mph24.8 kmh 24.95 in844.9 mb 0.00 in0.0 mm 0.00 in/hr0.0 mm/hr 0.00 in0.0 mm
11:05 AM 52.3°F11.3°C 26.8°F-2.9°C 37% 9.0 mph N14.5 kmh N 15.4 mph24.8 kmh 24.95 in844.9 mb 0.00 in0.0 mm 0.00 in/hr0.0 mm/hr 0.00 in0.0 mm
11:10 AM 52.3°F11.3°C 26.2°F-3.2°C 36% 10.0 mph N16.1 kmh N 18.6 mph29.9 kmh 24.95 in844.9 mb 0.00 in0.0 mm 0.00 in/hr0.0 mm/hr 0.00 in0.0 mm
11:15 AM 52.2°F11.2°C 25.3°F-3.7°C 35% 11.0 mph N17.7 kmh N 15.9 mph25.6 kmh 24.95 in844.9 mb 0.00 in0.0 mm 0.00 in/hr0.0 mm/hr 0.00 in0.0 mm
11:20 AM 52.9°F11.6°C 25.3°F-3.7°C 34% 10.0 mph N16.1 kmh N 14.8 mph23.8 kmh 24.95 in844.9 mb 0.00 in0.0 mm 0.00 in/hr0.0 mm/hr 0.00 in0.0 mm
11:25 AM 53.4°F11.9°C 24.3°F-4.3°C 32% 9.0 mph NNW14.5 kmh NNW 13.4 mph21.6 kmh 24.95 in844.9 mb 0.00 in0.0 mm 0.00 in/hr0.0 mm/hr 0.00 in0.0 mm
11:30 AM 54.0°F12.2°C 24.8°F-4.0°C 32% 8.0 mph NW12.9 kmh NW 15.2 mph24.5 kmh 24.95 in844.9 mb 0.00 in0.0 mm 0.00 in/hr0.0 mm/hr 0.00 in0.0 mm
11:35 AM 54.3°F12.4°C 22.8°F-5.1°C 29% 9.0 mph NNW14.5 kmh NNW 15.9 mph25.6 kmh 24.95 in844.9 mb 0.00 in0.0 mm 0.00 in/hr0.0 mm/hr 0.00 in0.0 mm
11:40 AM 54.5°F12.5°C 22.1°F-5.5°C 28% 10.0 mph NNW16.1 kmh NNW 17.2 mph27.7 kmh 24.95 in844.9 mb 0.00 in0.0 mm 0.00 in/hr0.0 mm/hr 0.00 in0.0 mm
11:46 AM 53.8°F12.1°C 20.7°F-6.3°C 27% 10.0 mph NNW16.1 kmh NNW 15.2 mph24.5 kmh 24.95 in844.9 mb 0.00 in0.0 mm 0.00 in/hr0.0 mm/hr 0.00 in0.0 mm
11:51 AM 55.8°F13.2°C 21.4°F-5.9°C 26% 9.0 mph NW14.5 kmh NW 11.2 mph18.0 kmh 24.95 in844.9 mb 0.00 in0.0 mm 0.00 in/hr0.0 mm/hr 0.00 in0.0 mm
12:01 PM 54.5°F12.5°C 21.2°F-6.0°C 27% 8.0 mph NNW12.9 kmh NNW 14.3 mph23.0 kmh 24.95 in844.9 mb 0.00 in0.0 mm 0.00 in/hr0.0 mm/hr 0.00 in0.0 mm
12:07 PM 54.9°F12.7°C 19.8°F-6.8°C 25% 9.0 mph NNW14.5 kmh NNW 15.9 mph25.6 kmh 24.95 in844.9 mb 0.00 in0.0 mm 0.00 in/hr0.0 mm/hr 0.00 in0.0 mm
12:12 PM 55.0°F12.8°C 19.9°F-6.7°C 25% 8.0 mph NW12.9 kmh NW 11.0 mph17.7 kmh 24.95 in844.9 mb 0.00 in0.0 mm 0.00 in/hr0.0 mm/hr 0.00 in0.0 mm
12:17 PM 55.0°F12.8°C 19.9°F-6.7°C 25% 7.0 mph NW11.3 kmh NW 14.3 mph23.0 kmh 24.95 in844.9 mb 0.00 in0.0 mm 0.00 in/hr0.0 mm/hr 0.00 in0.0 mm
12:22 PM 54.9°F12.7°C 19.8°F-6.8°C 25% 8.0 mph NW12.9 kmh NW 14.3 mph23.0 kmh 24.95 in844.9 mb 0.00 in0.0 mm 0.00 in/hr0.0 mm/hr 0.00 in0.0 mm
12:27 PM 55.4°F13.0°C 20.1°F-6.6°C 25% 8.0 mph NW12.9 kmh NW 13.9 mph22.4 kmh 24.95 in844.9 mb 0.00 in0.0 mm 0.00 in/hr0.0 mm/hr 0.00 in0.0 mm
12:32 PM 55.9°F13.3°C 20.7°F-6.3°C 25% 9.0 mph NW14.5 kmh NW 15.9 mph25.6 kmh 24.95 in844.9 mb 0.00 in0.0 mm 0.00 in/hr0.0 mm/hr 0.00 in0.0 mm
12:37 PM 54.5°F12.5°C 19.4°F-7.0°C 25% 9.0 mph NNW14.5 kmh NNW 15.2 mph24.5 kmh 24.95 in844.9 mb 0.00 in0.0 mm 0.00 in/hr0.0 mm/hr 0.00 in0.0 mm
12:42 PM 56.7°F13.7°C 20.3°F-6.5°C 24% 9.0 mph NNW14.5 kmh NNW 14.3 mph23.0 kmh 24.95 in844.9 mb 0.00 in0.0 mm 0.00 in/hr0.0 mm/hr 0.00 in0.0 mm
12:48 PM 55.9°F13.3°C 17.6°F-8.0°C 22% 10.0 mph NNW16.1 kmh NNW 15.4 mph24.8 kmh 24.95 in844.9 mb 0.00 in0.0 mm 0.00 in/hr0.0 mm/hr 0.00 in0.0 mm
12:53 PM 57.2°F14.0°C 15.3°F-9.3°C 19% 10.0 mph NNW16.1 kmh NNW 17.2 mph27.7 kmh 24.95 in844.9 mb 0.00 in0.0 mm 0.00 in/hr0.0 mm/hr 0.00 in0.0 mm
01:03 PM 56.3°F13.5°C 18.0°F-7.8°C 22% 7.0 mph NW11.3 kmh NW 12.1 mph19.5 kmh 24.95 in844.9 mb 0.00 in0.0 mm 0.00 in/hr0.0 mm/hr 0.00 in0.0 mm
01:08 PM 55.4°F13.0°C 20.1°F-6.6°C 25% 6.0 mph NNW9.7 kmh NNW 14.3 mph23.0 kmh 24.95 in844.9 mb 0.00 in0.0 mm 0.00 in/hr0.0 mm/hr 0.00 in0.0 mm
01:13 PM 56.1°F13.4°C 20.8°F-6.2°C 25% 6.0 mph NW9.7 kmh NW 11.0 mph17.7 kmh 24.95 in844.9 mb 0.00 in0.0 mm 0.00 in/hr0.0 mm/hr 0.00 in0.0 mm
01:18 PM 54.9°F12.7°C 20.7°F-6.3°C 26% 6.0 mph NW9.7 kmh NW 10.5 mph16.9 kmh 24.95 in844.9 mb 0.00 in0.0 mm 0.00 in/hr0.0 mm/hr 0.00 in0.0 mm
01:23 PM 54.0°F12.2°C 17.1°F-8.3°C 23% 6.0 mph NNW9.7 kmh NNW 8.3 mph13.4 kmh 24.95 in844.9 mb 0.00 in0.0 mm 0.00 in/hr0.0 mm/hr 0.00 in0.0 mm
01:28 PM 53.6°F12.0°C 19.6°F-6.9°C 26% 5.0 mph NNW8.0 kmh NNW 10.1 mph16.3 kmh 24.95 in844.9 mb 0.00 in0.0 mm 0.00 in/hr0.0 mm/hr 0.00 in0.0 mm
01:33 PM 53.1°F11.7°C 19.9°F-6.7°C 27% 7.0 mph N11.3 kmh N 13.0 mph20.9 kmh 24.95 in844.9 mb 0.00 in0.0 mm 0.00 in/hr0.0 mm/hr 0.00 in0.0 mm
01:38 PM 53.4°F11.9°C 21.2°F-6.0°C 28% 8.0 mph N12.9 kmh N 12.1 mph19.5 kmh 24.95 in844.9 mb 0.00 in0.0 mm 0.00 in/hr0.0 mm/hr 0.00 in0.0 mm
01:43 PM 52.9°F11.6°C 22.3°F-5.4°C 30% 8.0 mph N12.9 kmh N 14.3 mph23.0 kmh 24.95 in844.9 mb 0.00 in0.0 mm 0.00 in/hr0.0 mm/hr 0.00 in0.0 mm
01:48 PM 50.4°F10.2°C 24.4°F-4.2°C 36% 8.0 mph ENE12.9 kmh ENE 13.9 mph22.4 kmh 24.95 in844.9 mb 0.00 in0.0 mm 0.00 in/hr0.0 mm/hr 0.00 in0.0 mm
01:54 PM 50.4°F10.2°C 25.2°F-3.8°C 37% 8.0 mph SE12.9 kmh SE 14.3 mph23.0 kmh 24.95 in844.9 mb 0.00 in0.0 mm 0.00 in/hr0.0 mm/hr 0.00 in0.0 mm
01:59 PM 50.0°F10.0°C 24.8°F-4.0°C 37% 8.0 mph SE12.9 kmh SE 14.3 mph23.0 kmh 24.95 in844.9 mb 0.00 in0.0 mm 0.00 in/hr0.0 mm/hr 0.00 in0.0 mm
02:04 PM 49.6°F9.8°C 24.4°F-4.2°C 37% 8.0 mph SE12.9 kmh SE 12.1 mph19.5 kmh 24.95 in844.9 mb 0.00 in0.0 mm 0.00 in/hr0.0 mm/hr 0.00 in0.0 mm
02:09 PM 49.8°F9.9°C 24.6°F-4.1°C 37% 8.0 mph SE12.9 kmh SE 12.5 mph20.1 kmh 24.95 in844.9 mb 0.00 in0.0 mm 0.00 in/hr0.0 mm/hr 0.00 in0.0 mm
02:14 PM 50.2°F10.1°C 25.5°F-3.6°C 38% 9.0 mph SE14.5 kmh SE 13.4 mph21.6 kmh 24.95 in844.9 mb 0.00 in0.0 mm 0.00 in/hr0.0 mm/hr 0.00 in0.0 mm
02:19 PM 50.0°F10.0°C 24.8°F-4.0°C 37% 10.0 mph ESE16.1 kmh ESE 13.0 mph20.9 kmh 24.95 in844.9 mb 0.00 in0.0 mm 0.00 in/hr0.0 mm/hr 0.00 in0.0 mm
02:24 PM 49.8°F9.9°C 24.6°F-4.1°C 37% 9.0 mph ESE14.5 kmh ESE 13.4 mph21.6 kmh 24.95 in844.9 mb 0.00 in0.0 mm 0.00 in/hr0.0 mm/hr 0.00 in0.0 mm
02:29 PM 49.6°F9.8°C 24.4°F-4.2°C 37% 9.0 mph ESE14.5 kmh ESE 13.0 mph20.9 kmh 24.95 in844.9 mb 0.00 in0.0 mm 0.00 in/hr0.0 mm/hr 0.00 in0.0 mm
02:34 PM 50.2°F10.1°C 25.0°F-3.9°C 37% 9.0 mph ESE14.5 kmh ESE 13.0 mph20.9 kmh 24.95 in844.9 mb 0.00 in0.0 mm 0.00 in/hr0.0 mm/hr 0.00 in0.0 mm
02:39 PM 50.7°F10.4°C 25.3°F-3.7°C 37% 10.0 mph ESE16.1 kmh ESE 14.8 mph23.8 kmh 24.95 in844.9 mb 0.00 in0.0 mm 0.00 in/hr0.0 mm/hr 0.00 in0.0 mm
02:44 PM 50.5°F10.3°C 25.2°F-3.8°C 37% 10.0 mph ESE16.1 kmh ESE 14.3 mph23.0 kmh 24.98 in845.9 mb 0.00 in0.0 mm 0.00 in/hr0.0 mm/hr 0.00 in0.0 mm
02:49 PM 50.5°F10.3°C 25.2°F-3.8°C 37% 8.0 mph E12.9 kmh E 19.5 mph31.4 kmh 24.98 in845.9 mb 0.00 in0.0 mm 0.00 in/hr0.0 mm/hr 0.00 in0.0 mm
02:54 PM 49.3°F9.6°C 27.1°F-2.7°C 42% 10.0 mph NE16.1 kmh NE 20.1 mph32.3 kmh 24.98 in845.9 mb 0.00 in0.0 mm 0.00 in/hr0.0 mm/hr 0.00 in0.0 mm
02:59 PM 48.7°F9.3°C 27.9°F-2.3°C 44% 12.0 mph NE19.3 kmh NE 19.5 mph31.4 kmh 24.98 in845.9 mb 0.00 in0.0 mm 0.00 in/hr0.0 mm/hr 0.00 in0.0 mm
03:04 PM 48.2°F9.0°C 28.4°F-2.0°C 46% 12.0 mph NE19.3 kmh NE 19.5 mph31.4 kmh 24.98 in845.9 mb 0.00 in0.0 mm 0.00 in/hr0.0 mm/hr 0.00 in0.0 mm
03:09 PM 48.0°F8.9°C 28.8°F-1.8°C 47% 12.0 mph NE19.3 kmh NE 19.5 mph31.4 kmh 24.98 in845.9 mb 0.00 in0.0 mm 0.00 in/hr0.0 mm/hr 0.00 in0.0 mm
03:14 PM 48.2°F9.0°C 28.4°F-2.0°C 46% 11.0 mph NE17.7 kmh NE 19.5 mph31.4 kmh 24.98 in845.9 mb 0.00 in0.0 mm 0.00 in/hr0.0 mm/hr 0.00 in0.0 mm
03:19 PM 48.4°F9.1°C 27.5°F-2.5°C 44% 9.0 mph NE14.5 kmh NE 20.6 mph33.2 kmh 24.98 in845.9 mb 0.00 in0.0 mm 0.00 in/hr0.0 mm/hr 0.00 in0.0 mm
03:24 PM 47.3°F8.5°C 27.5°F-2.5°C 46% 8.0 mph NE12.9 kmh NE 15.4 mph24.8 kmh 24.98 in845.9 mb 0.00 in0.0 mm 0.00 in/hr0.0 mm/hr 0.00 in0.0 mm
03:29 PM 47.1°F8.4°C 28.4°F-2.0°C 48% 9.0 mph NE14.5 kmh NE 15.4 mph24.8 kmh 24.98 in845.9 mb 0.00 in0.0 mm 0.00 in/hr0.0 mm/hr 0.00 in0.0 mm
03:34 PM 46.8°F8.2°C 28.6°F-1.9°C 49% 8.0 mph NNE12.9 kmh NNE 15.2 mph24.5 kmh 24.98 in845.9 mb 0.00 in0.0 mm 0.00 in/hr0.0 mm/hr 0.00 in0.0 mm
03:39 PM 46.4°F8.0°C 27.9°F-2.3°C 48% 7.0 mph ENE11.3 kmh ENE 12.5 mph20.1 kmh 24.98 in845.9 mb 0.00 in0.0 mm 0.00 in/hr0.0 mm/hr 0.00 in0.0 mm
03:44 PM 46.6°F8.1°C 27.5°F-2.5°C 47% 6.0 mph E9.7 kmh E 9.2 mph14.8 kmh 25.01 in846.9 mb 0.00 in0.0 mm 0.00 in/hr0.0 mm/hr 0.00 in0.0 mm
03:49 PM 46.6°F8.1°C 28.0°F-2.2°C 48% 5.0 mph E8.0 kmh E 11.2 mph18.0 kmh 25.01 in846.9 mb 0.00 in0.0 mm 0.00 in/hr0.0 mm/hr 0.00 in0.0 mm
03:55 PM 46.4°F8.0°C 27.9°F-2.3°C 48% 6.0 mph E9.7 kmh E 10.1 mph16.3 kmh 25.01 in846.9 mb 0.00 in0.0 mm 0.00 in/hr0.0 mm/hr 0.00 in0.0 mm
04:00 PM 46.0°F7.8°C 28.0°F-2.2°C 49% 6.0 mph E9.7 kmh E 11.2 mph18.0 kmh 25.01 in846.9 mb 0.00 in0.0 mm 0.00 in/hr0.0 mm/hr 0.00 in0.0 mm
04:05 PM 46.0°F7.8°C 27.5°F-2.5°C 48% 5.0 mph E8.0 kmh E 9.2 mph14.8 kmh 25.01 in846.9 mb 0.00 in0.0 mm 0.00 in/hr0.0 mm/hr 0.00 in0.0 mm
04:10 PM 46.0°F7.8°C 28.4°F-2.0°C 50% 5.0 mph NE8.0 kmh NE 9.2 mph14.8 kmh 25.01 in846.9 mb 0.00 in0.0 mm 0.00 in/hr0.0 mm/hr 0.00 in0.0 mm
04:15 PM 43.7°F6.5°C 33.8°F1.0°C 68% 8.0 mph NNE12.9 kmh NNE 16.3 mph26.2 kmh 25.04 in848.0 mb 0.00 in0.0 mm 0.00 in/hr0.0 mm/hr 0.00 in0.0 mm
04:20 PM 42.3°F5.7°C 35.6°F2.0°C 77% 11.0 mph NNE17.7 kmh NNE 15.4 mph24.8 kmh 25.04 in848.0 mb 0.00 in0.0 mm 0.00 in/hr0.0 mm/hr 0.00 in0.0 mm
04:25 PM 41.5°F5.3°C 36.7°F2.6°C 83% 10.0 mph NNE16.1 kmh NNE 13.9 mph22.4 kmh 25.04 in848.0 mb 0.00 in0.0 mm 0.00 in/hr0.0 mm/hr 0.00 in0.0 mm
04:30 PM 41.2°F5.1°C 36.1°F2.3°C 82% 7.0 mph NNE11.3 kmh NNE 7.4 mph11.9 kmh 25.04 in848.0 mb 0.00 in0.0 mm 0.00 in/hr0.0 mm/hr 0.00 in0.0 mm
04:35 PM 41.2°F5.1°C 36.7°F2.6°C 84% 3.0 mph N4.8 kmh N 6.3 mph10.1 kmh 25.04 in848.0 mb 0.00 in0.0 mm 0.00 in/hr0.0 mm/hr 0.00 in0.0 mm
04:45 PM 41.2°F5.1°C 36.1°F2.3°C 82% 2.0 mph NNE3.2 kmh NNE 4.9 mph7.9 kmh 25.04 in848.0 mb 0.00 in0.0 mm 0.00 in/hr0.0 mm/hr 0.00 in0.0 mm
04:50 PM 41.2°F5.1°C 36.1°F2.3°C 82% 1.0 mph NE1.6 kmh NE 4.5 mph7.2 kmh 25.04 in848.0 mb 0.00 in0.0 mm 0.00 in/hr0.0 mm/hr 0.00 in0.0 mm
04:55 PM 41.5°F5.3°C 36.7°F2.6°C 83% 2.0 mph NE3.2 kmh NE 6.3 mph10.1 kmh 25.04 in848.0 mb 0.00 in0.0 mm 0.00 in/hr0.0 mm/hr 0.00 in0.0 mm
05:00 PM 41.5°F5.3°C 36.7°F2.6°C 83% 3.0 mph SSW4.8 kmh SSW 4.9 mph7.9 kmh 25.04 in848.0 mb 0.00 in0.0 mm 0.00 in/hr0.0 mm/hr 0.00 in0.0 mm
05:05 PM 41.7°F5.4°C 37.2°F2.9°C 84% 3.0 mph SW4.8 kmh SW 6.3 mph10.1 kmh 25.04 in848.0 mb 0.00 in0.0 mm 0.00 in/hr0.0 mm/hr 0.00 in0.0 mm
05:10 PM 41.5°F5.3°C 36.7°F2.6°C 83% 4.0 mph SSW6.4 kmh SSW 8.3 mph13.4 kmh 25.04 in848.0 mb 0.00 in0.0 mm 0.00 in/hr0.0 mm/hr 0.00 in0.0 mm
05:15 PM 41.9°F5.5°C 37.0°F2.8°C 83% 4.0 mph S6.4 kmh S 8.3 mph13.4 kmh 25.04 in848.0 mb 0.00 in0.0 mm 0.00 in/hr0.0 mm/hr 0.00 in0.0 mm
05:20 PM 41.7°F5.4°C 36.7°F2.6°C 82% 5.0 mph S8.0 kmh S 9.6 mph15.4 kmh 25.04 in848.0 mb 0.00 in0.0 mm 0.00 in/hr0.0 mm/hr 0.00 in0.0 mm
05:25 PM 42.1°F5.6°C 37.2°F2.9°C 83% 6.0 mph SSE9.7 kmh SSE 12.1 mph19.5 kmh 25.04 in848.0 mb 0.00 in0.0 mm 0.00 in/hr0.0 mm/hr 0.00 in0.0 mm
05:30 PM 42.3°F5.7°C 37.2°F2.9°C 82% 6.0 mph SSE9.7 kmh SSE 11.2 mph18.0 kmh 25.04 in848.0 mb 0.00 in0.0 mm 0.00 in/hr0.0 mm/hr 0.00 in0.0 mm
05:35 PM 42.6°F5.9°C 37.2°F2.9°C 81% 6.0 mph SE9.7 kmh SE 11.0 mph17.7 kmh 25.04 in848.0 mb 0.00 in0.0 mm 0.00 in/hr0.0 mm/hr 0.00 in0.0 mm
05:40 PM 43.0°F6.1°C 36.9°F2.7°C 79% 8.0 mph SE12.9 kmh SE 15.4 mph24.8 kmh 25.01 in846.9 mb 0.00 in0.0 mm 0.00 in/hr0.0 mm/hr 0.00 in0.0 mm
05:45 PM 43.3°F6.3°C 36.7°F2.6°C 77% 9.0 mph SE14.5 kmh SE 10.5 mph16.9 kmh 25.01 in846.9 mb 0.00 in0.0 mm 0.00 in/hr0.0 mm/hr 0.00 in0.0 mm
05:50 PM 43.2°F6.2°C 35.8°F2.1°C 75% 7.0 mph E11.3 kmh E 9.6 mph15.4 kmh 25.01 in846.9 mb 0.00 in0.0 mm 0.00 in/hr0.0 mm/hr 0.00 in0.0 mm
05:55 PM 43.0°F6.1°C 34.9°F1.6°C 73% 7.0 mph E11.3 kmh E 11.6 mph18.7 kmh 25.01 in846.9 mb 0.00 in0.0 mm 0.00 in/hr0.0 mm/hr 0.00 in0.0 mm
06:00 PM 43.0°F6.1°C 34.9°F1.6°C 73% 8.0 mph E12.9 kmh E 11.2 mph18.0 kmh 25.01 in846.9 mb 0.00 in0.0 mm 0.00 in/hr0.0 mm/hr 0.00 in0.0 mm
06:05 PM 43.0°F6.1°C 35.2°F1.8°C 74% 8.0 mph E12.9 kmh E 11.2 mph18.0 kmh 25.01 in846.9 mb 0.00 in0.0 mm 0.00 in/hr0.0 mm/hr 0.00 in0.0 mm
06:10 PM 42.8°F6.0°C 35.4°F1.9°C 75% 7.0 mph E11.3 kmh E 9.6 mph15.4 kmh 25.01 in846.9 mb 0.00 in0.0 mm 0.00 in/hr0.0 mm/hr 0.00 in0.0 mm
06:15 PM 42.8°F6.0°C 35.4°F1.9°C 75% 7.0 mph E11.3 kmh E 9.2 mph14.8 kmh 25.01 in846.9 mb 0.00 in0.0 mm 0.00 in/hr0.0 mm/hr 0.00 in0.0 mm
06:20 PM 42.8°F6.0°C 34.7°F1.5°C 73% 6.0 mph E9.7 kmh E 9.2 mph14.8 kmh 25.01 in846.9 mb 0.00 in0.0 mm 0.00 in/hr0.0 mm/hr 0.00 in0.0 mm
06:25 PM 42.4°F5.8°C 34.3°F1.3°C 73% 6.0 mph E9.7 kmh E 11.0 mph17.7 kmh 25.04 in848.0 mb 0.00 in0.0 mm 0.00 in/hr0.0 mm/hr 0.00 in0.0 mm
06:31 PM 42.4°F5.8°C 34.0°F1.1°C 72% 6.0 mph E9.7 kmh E 10.5 mph16.9 kmh 25.04 in848.0 mb 0.00 in0.0 mm 0.00 in/hr0.0 mm/hr 0.00 in0.0 mm
06:36 PM 42.4°F5.8°C 34.0°F1.1°C 72% 6.0 mph E9.7 kmh E 7.8 mph12.6 kmh 25.04 in848.0 mb 0.00 in0.0 mm 0.00 in/hr0.0 mm/hr 0.00 in0.0 mm
06:41 PM 42.3°F5.7°C 33.8°F1.0°C 72% 5.0 mph E8.0 kmh E 8.7 mph14.0 kmh 25.04 in848.0 mb 0.00 in0.0 mm 0.00 in/hr0.0 mm/hr 0.00 in0.0 mm
06:46 PM 42.3°F5.7°C 33.8°F1.0°C 72% 4.0 mph E6.4 kmh E 7.4 mph11.9 kmh 25.04 in848.0 mb 0.00 in0.0 mm 0.00 in/hr0.0 mm/hr 0.00 in0.0 mm
06:51 PM 42.3°F5.7°C 34.2°F1.2°C 73% 4.0 mph E6.4 kmh E 7.8 mph12.6 kmh 25.04 in848.0 mb 0.00 in0.0 mm 0.00 in/hr0.0 mm/hr 0.00 in0.0 mm
06:56 PM 42.3°F5.7°C 34.2°F1.2°C 73% 4.0 mph ESE6.4 kmh ESE 6.9 mph11.1 kmh 25.04 in848.0 mb 0.00 in0.0 mm 0.00 in/hr0.0 mm/hr 0.00 in0.0 mm
07:01 PM 42.3°F5.7°C 34.2°F1.2°C 73% 2.0 mph ESE3.2 kmh ESE 2.7 mph4.3 kmh 25.04 in848.0 mb 0.00 in0.0 mm 0.00 in/hr0.0 mm/hr 0.00 in0.0 mm
07:06 PM 42.3°F5.7°C 34.5°F1.4°C 74% 1.0 mph ESE1.6 kmh ESE 4.5 mph7.2 kmh 25.04 in848.0 mb 0.00 in0.0 mm 0.00 in/hr0.0 mm/hr 0.00 in0.0 mm
07:11 PM 42.1°F5.6°C 34.7°F1.5°C 75% 2.0 mph E3.2 kmh E 5.4 mph8.7 kmh 25.07 in849.0 mb 0.00 in0.0 mm 0.00 in/hr0.0 mm/hr 0.00 in0.0 mm
07:16 PM 41.9°F5.5°C 34.5°F1.4°C 75% 2.0 mph E3.2 kmh E 3.1 mph5.0 kmh 25.07 in849.0 mb 0.00 in0.0 mm 0.00 in/hr0.0 mm/hr 0.00 in0.0 mm
07:21 PM 41.9°F5.5°C 34.9°F1.6°C 76% Calm Calm 3.1 mph5.0 kmh 25.07 in849.0 mb 0.00 in0.0 mm 0.00 in/hr0.0 mm/hr 0.00 in0.0 mm
07:26 PM 41.9°F5.5°C 34.9°F1.6°C 76% Calm Calm 3.1 mph5.0 kmh 25.07 in849.0 mb 0.00 in0.0 mm 0.00 in/hr0.0 mm/hr 0.00 in0.0 mm
07:31 PM 41.7°F5.4°C 35.1°F1.7°C 77% 1.0 mph E1.6 kmh E 3.6 mph5.8 kmh 25.07 in849.0 mb 0.04 in1.0 mm 0.48 in/hr12.2 mm/hr 0.04 in1.0 mm
07:36 PM 41.5°F5.3°C 35.6°F2.0°C 79% 2.0 mph E3.2 kmh E 5.4 mph8.7 kmh 25.07 in849.0 mb 0.04 in1.0 mm 0.00 in/hr0.0 mm/hr 0.04 in1.0 mm
07:41 PM 41.5°F5.3°C 35.6°F2.0°C 79% 3.0 mph SSE4.8 kmh SSE 5.4 mph8.7 kmh 25.07 in849.0 mb 0.04 in1.0 mm 0.00 in/hr0.0 mm/hr 0.04 in1.0 mm
07:47 PM 41.7°F5.4°C 36.0°F2.2°C 80% 3.0 mph S4.8 kmh S 5.4 mph8.7 kmh 25.07 in849.0 mb 0.04 in1.0 mm 0.00 in/hr0.0 mm/hr 0.04 in1.0 mm
07:52 PM 42.1°F5.6°C 36.0°F2.2°C 79% 3.0 mph S4.8 kmh S 6.3 mph10.1 kmh 25.07 in849.0 mb 0.04 in1.0 mm 0.00 in/hr0.0 mm/hr 0.04 in1.0 mm
07:57 PM 42.3°F5.7°C 36.0°F2.2°C 78% 4.0 mph S6.4 kmh S 7.8 mph12.6 kmh 25.07 in849.0 mb 0.04 in1.0 mm 0.00 in/hr0.0 mm/hr 0.04 in1.0 mm
08:02 PM 42.3°F5.7°C 36.1°F2.3°C 79% 5.0 mph SSE8.0 kmh SSE 9.6 mph15.4 kmh 25.07 in849.0 mb 0.04 in1.0 mm 0.00 in/hr0.0 mm/hr 0.04 in1.0 mm
08:07 PM 42.3°F5.7°C 36.0°F2.2°C 78% 7.0 mph SE11.3 kmh SE 10.5 mph16.9 kmh 25.07 in849.0 mb 0.04 in1.0 mm 0.00 in/hr0.0 mm/hr 0.04 in1.0 mm
08:12 PM 42.4°F5.8°C 35.4°F1.9°C 76% 7.0 mph SE11.3 kmh SE 10.1 mph16.3 kmh 25.07 in849.0 mb 0.04 in1.0 mm 0.00 in/hr0.0 mm/hr 0.04 in1.0 mm
08:17 PM 42.4°F5.8°C 35.1°F1.7°C 75% 7.0 mph SE11.3 kmh SE 9.6 mph15.4 kmh 25.07 in849.0 mb 0.04 in1.0 mm 0.00 in/hr0.0 mm/hr 0.04 in1.0 mm
08:22 PM 42.4°F5.8°C 34.7°F1.5°C 74% 6.0 mph SE9.7 kmh SE 10.5 mph16.9 kmh 25.07 in849.0 mb 0.04 in1.0 mm 0.00 in/hr0.0 mm/hr 0.04 in1.0 mm
08:27 PM 42.6°F5.9°C 34.5°F1.4°C 73% 6.0 mph SSE9.7 kmh SSE 8.7 mph14.0 kmh 25.07 in849.0 mb 0.04 in1.0 mm 0.00 in/hr0.0 mm/hr 0.04 in1.0 mm
08:32 PM 42.6°F5.9°C 34.2°F1.2°C 72% 4.0 mph SSE6.4 kmh SSE 11.0 mph17.7 kmh 25.07 in849.0 mb 0.00 in0.0 mm 0.00 in/hr0.0 mm/hr 0.04 in1.0 mm
08:37 PM 42.4°F5.8°C 34.0°F1.1°C 72% 5.0 mph SSE8.0 kmh SSE 7.4 mph11.9 kmh 25.07 in849.0 mb 0.00 in0.0 mm 0.00 in/hr0.0 mm/hr 0.04 in1.0 mm
08:42 PM 42.8°F6.0°C 34.0°F1.1°C 71% 5.0 mph SE8.0 kmh SE 7.4 mph11.9 kmh 25.10 in850.0 mb 0.00 in0.0 mm 0.00 in/hr0.0 mm/hr 0.04 in1.0 mm
08:47 PM 42.8°F6.0°C 34.0°F1.1°C 71% 5.0 mph SE8.0 kmh SE 6.7 mph10.8 kmh 25.10 in850.0 mb 0.00 in0.0 mm 0.00 in/hr0.0 mm/hr 0.04 in1.0 mm
08:52 PM 42.8°F6.0°C 34.0°F1.1°C 71% 5.0 mph ESE8.0 kmh ESE 6.9 mph11.1 kmh 25.10 in850.0 mb 0.00 in0.0 mm 0.00 in/hr0.0 mm/hr 0.04 in1.0 mm
08:58 PM 42.8°F6.0°C 34.0°F1.1°C 71% 5.0 mph E8.0 kmh E 13.0 mph20.9 kmh 25.10 in850.0 mb 0.00 in0.0 mm 0.00 in/hr0.0 mm/hr 0.04 in1.0 mm
09:03 PM 43.0°F6.1°C 34.2°F1.2°C 71% 6.0 mph E9.7 kmh E 8.3 mph13.4 kmh 25.10 in850.0 mb 0.00 in0.0 mm 0.00 in/hr0.0 mm/hr 0.04 in1.0 mm
09:08 PM 42.6°F5.9°C 33.8°F1.0°C 71% 6.0 mph E9.7 kmh E 15.4 mph24.8 kmh 25.10 in850.0 mb 0.00 in0.0 mm 0.00 in/hr0.0 mm/hr 0.04 in1.0 mm
09:13 PM 42.3°F5.7°C 34.5°F1.4°C 74% 6.0 mph E9.7 kmh E 9.6 mph15.4 kmh 25.07 in849.0 mb 0.00 in0.0 mm 0.00 in/hr0.0 mm/hr 0.04 in1.0 mm
09:18 PM 42.1°F5.6°C 34.7°F1.5°C 75% 6.0 mph E9.7 kmh E 8.3 mph13.4 kmh 25.07 in849.0 mb 0.00 in0.0 mm 0.00 in/hr0.0 mm/hr 0.04 in1.0 mm
09:23 PM 41.7°F5.4°C 35.1°F1.7°C 77% 7.0 mph ENE11.3 kmh ENE 10.1 mph16.3 kmh 25.07 in849.0 mb 0.00 in0.0 mm 0.00 in/hr0.0 mm/hr 0.04 in1.0 mm
09:28 PM 41.7°F5.4°C 35.4°F1.9°C 78% 7.0 mph E11.3 kmh E 10.5 mph16.9 kmh 25.10 in850.0 mb 0.00 in0.0 mm 0.00 in/hr0.0 mm/hr 0.04 in1.0 mm
09:33 PM 41.7°F5.4°C 35.4°F1.9°C 78% 8.0 mph E12.9 kmh E 42.7 mph68.7 kmh 25.10 in850.0 mb 0.00 in0.0 mm 0.00 in/hr0.0 mm/hr 0.04 in1.0 mm
09:38 PM 41.7°F5.4°C 35.8°F2.1°C 79% 7.0 mph E11.3 kmh E 8.7 mph14.0 kmh 25.10 in850.0 mb 0.00 in0.0 mm 0.00 in/hr0.0 mm/hr 0.04 in1.0 mm
09:43 PM 41.7°F5.4°C 35.4°F1.9°C 78% 6.0 mph E9.7 kmh E 7.4 mph11.9 kmh 25.10 in850.0 mb 0.00 in0.0 mm 0.00 in/hr0.0 mm/hr 0.04 in1.0 mm
09:48 PM 41.5°F5.3°C 35.2°F1.8°C 78% 5.0 mph E8.0 kmh E 19.5 mph31.4 kmh 25.10 in850.0 mb 0.00 in0.0 mm 0.00 in/hr0.0 mm/hr 0.04 in1.0 mm
09:53 PM 41.5°F5.3°C 35.6°F2.0°C 79% 5.0 mph ENE8.0 kmh ENE 6.7 mph10.8 kmh 25.10 in850.0 mb 0.00 in0.0 mm 0.00 in/hr0.0 mm/hr 0.04 in1.0 mm
09:59 PM 41.7°F5.4°C 35.8°F2.1°C 79% 4.0 mph ENE6.4 kmh ENE 5.8 mph9.3 kmh 25.10 in850.0 mb 0.00 in0.0 mm 0.00 in/hr0.0 mm/hr 0.04 in1.0 mm
10:04 PM 42.3°F5.7°C 36.0°F2.2°C 78% 4.0 mph ENE6.4 kmh ENE 6.9 mph11.1 kmh 25.10 in850.0 mb 0.00 in0.0 mm 0.00 in/hr0.0 mm/hr 0.04 in1.0 mm
10:09 PM 42.1°F5.6°C 34.7°F1.5°C 75% 5.0 mph E8.0 kmh E 7.4 mph11.9 kmh 25.10 in850.0 mb 0.00 in0.0 mm 0.00 in/hr0.0 mm/hr 0.04 in1.0 mm
10:14 PM 41.7°F5.4°C 34.7°F1.5°C 76% 5.0 mph ENE8.0 kmh ENE 21.0 mph33.8 kmh 25.10 in850.0 mb 0.00 in0.0 mm 0.00 in/hr0.0 mm/hr 0.04 in1.0 mm
10:19 PM 41.5°F5.3°C 34.9°F1.6°C 77% 2.0 mph ENE3.2 kmh ENE 4.9 mph7.9 kmh 25.10 in850.0 mb 0.00 in0.0 mm 0.00 in/hr0.0 mm/hr 0.04 in1.0 mm
10:24 PM 41.4°F5.2°C 35.4°F1.9°C 79% 3.0 mph NE4.8 kmh NE 6.7 mph10.8 kmh 25.10 in850.0 mb 0.00 in0.0 mm 0.00 in/hr0.0 mm/hr 0.04 in1.0 mm
10:29 PM 41.0°F5.0°C 35.6°F2.0°C 81% 4.0 mph W6.4 kmh W 6.3 mph10.1 kmh 25.10 in850.0 mb 0.00 in0.0 mm 0.00 in/hr0.0 mm/hr 0.04 in1.0 mm
10:34 PM 40.8°F4.9°C 36.1°F2.3°C 83% 5.0 mph NW8.0 kmh NW 13.9 mph22.4 kmh 25.10 in850.0 mb 0.00 in0.0 mm 0.00 in/hr0.0 mm/hr 0.04 in1.0 mm
10:39 PM 40.8°F4.9°C 35.8°F2.1°C 82% 4.0 mph N6.4 kmh N 4.9 mph7.9 kmh 25.10 in850.0 mb 0.00 in0.0 mm 0.00 in/hr0.0 mm/hr 0.04 in1.0 mm
10:44 PM 41.4°F5.2°C 36.0°F2.2°C 81% 4.0 mph NNE6.4 kmh NNE 6.3 mph10.1 kmh 25.10 in850.0 mb 0.00 in0.0 mm 0.00 in/hr0.0 mm/hr 0.04 in1.0 mm
10:49 PM 41.5°F5.3°C 35.8°F2.1°C 80% 4.0 mph NE6.4 kmh NE 6.7 mph10.8 kmh 25.10 in850.0 mb 0.00 in0.0 mm 0.00 in/hr0.0 mm/hr 0.04 in1.0 mm
10:54 PM 41.2°F5.1°C 35.2°F1.8°C 79% 5.0 mph ENE8.0 kmh ENE 6.3 mph10.1 kmh 25.10 in850.0 mb 0.00 in0.0 mm 0.00 in/hr0.0 mm/hr 0.04 in1.0 mm
10:59 PM 41.2°F5.1°C 35.4°F1.9°C 80% 4.0 mph E6.4 kmh E 4.9 mph7.9 kmh 25.10 in850.0 mb 0.00 in0.0 mm 0.00 in/hr0.0 mm/hr 0.04 in1.0 mm
11:04 PM 41.2°F5.1°C 36.1°F2.3°C 82% 2.0 mph E3.2 kmh E 6.7 mph10.8 kmh 25.10 in850.0 mb 0.00 in0.0 mm 0.00 in/hr0.0 mm/hr 0.04 in1.0 mm
11:09 PM 40.8°F4.9°C 36.3°F2.4°C 84% 3.0 mph NW4.8 kmh NW 5.8 mph9.3 kmh 25.10 in850.0 mb 0.00 in0.0 mm 0.00 in/hr0.0 mm/hr 0.04 in1.0 mm
11:14 PM 40.8°F4.9°C 36.3°F2.4°C 84% 3.0 mph W4.8 kmh W 7.4 mph11.9 kmh 25.10 in850.0 mb 0.00 in0.0 mm 0.00 in/hr0.0 mm/hr 0.04 in1.0 mm
11:19 PM 40.8°F4.9°C 36.7°F2.6°C 85% 4.0 mph S6.4 kmh S 7.8 mph12.6 kmh 25.10 in850.0 mb 0.00 in0.0 mm 0.00 in/hr0.0 mm/hr 0.04 in1.0 mm
11:24 PM 40.8°F4.9°C 36.7°F2.6°C 85% 3.0 mph SSE4.8 kmh SSE 6.9 mph11.1 kmh 25.10 in850.0 mb 0.00 in0.0 mm 0.00 in/hr0.0 mm/hr 0.04 in1.0 mm
11:29 PM 40.6°F4.8°C 36.5°F2.5°C 85% 5.0 mph WSW8.0 kmh WSW 12.5 mph20.1 kmh 25.10 in850.0 mb 0.00 in0.0 mm 0.00 in/hr0.0 mm/hr 0.04 in1.0 mm
11:34 PM 40.8°F4.9°C 36.7°F2.6°C 85% 5.0 mph NW8.0 kmh NW 6.3 mph10.1 kmh 25.10 in850.0 mb 0.00 in0.0 mm 0.00 in/hr0.0 mm/hr 0.04 in1.0 mm
11:39 PM 40.8°F4.9°C 36.3°F2.4°C 84% 2.0 mph NW3.2 kmh NW 4.0 mph6.4 kmh 25.10 in850.0 mb 0.00 in0.0 mm 0.00 in/hr0.0 mm/hr 0.04 in1.0 mm
11:44 PM 41.5°F5.3°C 37.0°F2.8°C 84% 2.0 mph NW3.2 kmh NW 15.4 mph24.8 kmh 25.10 in850.0 mb 0.00 in0.0 mm 0.00 in/hr0.0 mm/hr 0.04 in1.0 mm
11:49 PM 41.2°F5.1°C 36.5°F2.5°C 83% 4.0 mph ENE6.4 kmh ENE 16.3 mph26.2 kmh 25.10 in850.0 mb 0.00 in0.0 mm 0.00 in/hr0.0 mm/hr 0.04 in1.0 mm
11:54 PM 42.1°F5.6°C 36.3°F2.4°C 80% 5.0 mph SSE8.0 kmh SSE 8.3 mph13.4 kmh 25.10 in850.0 mb 0.00 in0.0 mm 0.00 in/hr0.0 mm/hr 0.04 in1.0 mm
11:59 PM 41.5°F5.3°C 36.1°F2.3°C 81% 3.0 mph SSE4.8 kmh SSE 6.7 mph10.8 kmh 25.10 in850.0 mb 0.00 in0.0 mm 0.00 in/hr0.0 mm/hr 0.04 in1.0 mm